Time;durP1;ratioP1;P1;durP2;ratioP2;P2;SDS_P1;SDS_P2;PMS_P1;PMS_P2;Temp;Humidity;BMP_temperature;BMP_pressure;BME280_temperature;BME280_humidity;BME280_pressure;Samples;Min_cycle;Max_cycle;Signal;HPM_P1;HPM_P2
2022/03/03 00:02:06;;;;;;;;;;;18.50;99.90;;;;;;5034005;28;19925;-62
2022/03/03 00:04:33;;;;;;;;;;;18.50;99.90;;;;;;5043844;28;19925;-64
2022/03/03 00:07:00;;;;;;;;;;;18.50;99.90;;;;;;5047192;28;20400;-64
2022/03/03 00:09:27;;;;;;;;;;;18.50;99.90;;;;;;5034305;28;19925;-65
2022/03/03 00:11:54;;;;;;;;;;;18.50;99.90;;;;;;5045115;28;20354;-63
2022/03/03 00:14:21;;;;;;;;;;;18.50;99.90;;;;;;5044771;28;19936;-65
2022/03/03 00:16:48;;;;;;;;;;;18.50;99.90;;;;;;5033337;28;19929;-63
2022/03/03 00:19:16;;;;;;;;;;;18.50;99.90;;;;;;5037878;28;19928;-63
2022/03/03 00:21:43;;;;;;;;;;;18.50;99.90;;;;;;5045207;28;20028;-63
2022/03/03 00:24:10;;;;;;;;;;;18.40;99.90;;;;;;5037279;28;20035;-65
2022/03/03 00:26:37;;;;;;;;;;;18.40;99.90;;;;;;5047487;28;19940;-62
2022/03/03 00:29:04;;;;;;;;;;;18.40;99.90;;;;;;5034426;28;19935;-65
2022/03/03 00:31:31;;;;;;;;;;;18.40;99.90;;;;;;5039874;28;20419;-62
2022/03/03 00:33:58;;;;;;;;;;;18.40;99.90;;;;;;5040879;28;19929;-64
2022/03/03 00:36:27;;;;;;;;;;;18.40;99.90;;;;;;5046703;28;20316;-63
2022/03/03 00:38:54;;;;;;;;;;;18.40;99.90;;;;;;5042669;28;19929;-63
2022/03/03 00:41:21;;;;;;;;;;;18.40;99.90;;;;;;5043072;28;19932;-64
2022/03/03 00:43:48;;;;;;;;;;;18.30;99.90;;;;;;5045831;28;20308;-62
2022/03/03 00:46:15;;;;;;;;;;;18.40;99.90;;;;;;5036759;28;20393;-64
2022/03/03 00:48:43;;;;;;;;;;;18.30;99.90;;;;;;5038328;28;19928;-63
2022/03/03 00:51:10;;;;;;;;;;;18.30;99.90;;;;;;5036816;28;19925;-65
2022/03/03 00:53:37;;;;;;;;;;;18.30;99.90;;;;;;5043851;28;20012;-65
2022/03/03 00:56:05;;;;;;;;;;;18.30;99.90;;;;;;5048068;28;19948;-64
2022/03/03 00:58:32;;;;;;;;;;;18.30;99.90;;;;;;5037381;28;19928;-61
2022/03/03 01:01:01;;;;;;;;;;;18.40;99.90;;;;;;5042203;28;19929;-64
2022/03/03 01:03:28;;;;;;;;;;;18.40;99.90;;;;;;5042349;28;19968;-62
2022/03/03 01:05:56;;;;;;;;;;;18.40;99.90;;;;;;5045562;28;20360;-63
2022/03/03 01:08:23;;;;;;;;;;;18.40;99.90;;;;;;5035156;28;20308;-64
2022/03/03 01:10:51;;;;;;;;;;;18.40;99.90;;;;;;5035134;28;19933;-62
2022/03/03 01:13:20;;;;;;;;;;;18.40;99.90;;;;;;5041567;28;19932;-62
2022/03/03 01:15:47;;;;;;;;;;;18.30;99.90;;;;;;5038651;28;20266;-63
2022/03/03 01:18:15;;;;;;;;;;;18.40;99.90;;;;;;5033472;28;19948;-64
2022/03/03 01:20:42;;;;;;;;;;;18.40;99.90;;;;;;5037734;28;19932;-64
2022/03/03 01:23:10;;;;;;;;;;;18.30;99.90;;;;;;5045755;28;19955;-64
2022/03/03 01:25:37;;;;;;;;;;;18.30;99.90;;;;;;5043538;28;19955;-65
2022/03/03 01:28:04;;;;;;;;;;;18.30;99.90;;;;;;5035339;28;19936;-62
2022/03/03 01:30:31;;;;;;;;;;;18.30;99.90;;;;;;5036359;28;19933;-65
2022/03/03 01:32:59;;;;;;;;;;;18.30;99.90;;;;;;5043639;28;19929;-63
2022/03/03 01:35:26;;;;;;;;;;;18.30;99.90;;;;;;5038151;28;19939;-63
2022/03/03 01:37:53;;;;;;;;;;;18.20;99.90;;;;;;5040442;28;19932;-62
2022/03/03 01:40:22;;;;;;;;;;;18.20;99.90;;;;;;5039075;28;19936;-65
2022/03/03 01:42:50;;;;;;;;;;;18.20;99.90;;;;;;5035933;28;19929;-65
2022/03/03 01:45:17;;;;;;;;;;;18.10;99.90;;;;;;5046484;28;20293;-65
2022/03/03 01:47:44;;;;;;;;;;;18.10;99.90;;;;;;5049269;28;19929;-64
2022/03/03 01:50:11;;;;;;;;;;;18.10;99.90;;;;;;5053476;28;19949;-65
2022/03/03 01:52:39;;;;;;;;;;;18.10;99.90;;;;;;5048350;28;19935;-61
2022/03/03 01:55:06;;;;;;;;;;;18.10;99.90;;;;;;5040747;28;19925;-64
2022/03/03 01:57:34;;;;;;;;;;;18.10;99.90;;;;;;5044072;28;20178;-63
2022/03/03 02:00:03;;;;;;;;;;;18.10;99.90;;;;;;5034885;28;19940;-63
2022/03/03 02:02:37;;;;;;;;;;;18.10;99.90;;;;;;5047500;28;19925;-63
2022/03/03 02:05:06;;;;;;;;;;;18.10;99.90;;;;;;5029598;28;19929;-64
2022/03/03 02:07:33;;;;;;;;;;;18.10;99.90;;;;;;5046806;28;19924;-61
2022/03/03 02:10:01;;;;;;;;;;;18.10;99.90;;;;;;5035696;28;19924;-62
2022/03/03 02:12:29;;;;;;;;;;;18.10;99.90;;;;;;5046786;28;19936;-63
2022/03/03 02:14:56;;;;;;;;;;;18.00;99.90;;;;;;5037993;28;19929;-64
2022/03/03 02:17:23;;;;;;;;;;;18.00;99.90;;;;;;5036324;28;19933;-64
2022/03/03 02:19:50;;;;;;;;;;;18.10;99.90;;;;;;5042482;28;19929;-64
2022/03/03 02:22:17;;;;;;;;;;;18.10;99.90;;;;;;5055927;28;19933;-64
2022/03/03 02:24:45;;;;;;;;;;;18.00;99.90;;;;;;5036582;28;19928;-63
2022/03/03 02:27:12;;;;;;;;;;;18.00;99.90;;;;;;5041024;28;20308;-62
2022/03/03 02:29:39;;;;;;;;;;;18.00;99.90;;;;;;5050105;28;20296;-62
2022/03/03 02:32:07;;;;;;;;;;;18.00;99.90;;;;;;5039205;28;20270;-62
2022/03/03 02:34:35;;;;;;;;;;;18.00;99.90;;;;;;5027735;28;19937;-63
2022/03/03 02:37:02;;;;;;;;;;;18.00;99.90;;;;;;5040228;28;19933;-63
2022/03/03 02:39:29;;;;;;;;;;;18.00;99.90;;;;;;5033673;28;20016;-63
2022/03/03 02:41:56;;;;;;;;;;;17.90;99.90;;;;;;5044950;28;19929;-62
2022/03/03 02:44:23;;;;;;;;;;;18.00;99.90;;;;;;5044843;28;19933;-62
2022/03/03 02:46:51;;;;;;;;;;;17.90;99.90;;;;;;5043378;28;19925;-64
2022/03/03 02:49:18;;;;;;;;;;;17.90;99.90;;;;;;5044275;28;20320;-61
2022/03/03 02:51:45;;;;;;;;;;;17.90;99.90;;;;;;5040651;28;19929;-64
2022/03/03 02:54:12;;;;;;;;;;;17.90;99.90;;;;;;5039343;28;19933;-63
2022/03/03 02:59:25;;;;;;;;;;;17.90;99.90;;;;;;5033358;28;19929;-63
2022/03/03 03:01:53;;;;;;;;;;;17.90;99.90;;;;;;5040803;28;19940;-63
2022/03/03 03:04:20;;;;;;;;;;;17.90;99.90;;;;;;5049472;28;19943;-65
2022/03/03 03:06:47;;;;;;;;;;;17.90;99.90;;;;;;5042995;28;19936;-64
2022/03/03 03:09:14;;;;;;;;;;;17.80;99.90;;;;;;5031537;28;20251;-64
2022/03/03 03:11:41;;;;;;;;;;;17.80;99.90;;;;;;5030068;28;19929;-64
2022/03/03 03:14:08;;;;;;;;;;;17.80;99.90;;;;;;5034462;28;19928;-63
2022/03/03 03:16:36;;;;;;;;;;;17.80;99.90;;;;;;5040388;28;19925;-63
2022/03/03 03:19:03;;;;;;;;;;;17.70;99.90;;;;;;5037913;28;20065;-64
2022/03/03 03:21:30;;;;;;;;;;;17.70;99.90;;;;;;5035375;28;19929;-64
2022/03/03 03:23:57;;;;;;;;;;;17.70;99.90;;;;;;5034655;28;20055;-64
2022/03/03 03:26:24;;;;;;;;;;;17.70;99.90;;;;;;5034582;28;19958;-63
2022/03/03 03:28:51;;;;;;;;;;;17.70;99.90;;;;;;5044172;28;20308;-63
2022/03/03 03:31:19;;;;;;;;;;;17.70;99.90;;;;;;5048848;28;19928;-64
2022/03/03 03:33:46;;;;;;;;;;;17.70;99.90;;;;;;5043068;28;19929;-64
2022/03/03 03:36:13;;;;;;;;;;;17.70;99.90;;;;;;5040347;28;20007;-61
2022/03/03 03:38:40;;;;;;;;;;;17.60;99.90;;;;;;5038656;28;19929;-61
2022/03/03 03:41:07;;;;;;;;;;;17.70;99.90;;;;;;5031453;28;19940;-61
2022/03/03 03:43:34;;;;;;;;;;;17.60;99.90;;;;;;5045360;28;20388;-62
2022/03/03 03:46:01;;;;;;;;;;;17.60;99.90;;;;;;5047243;28;19933;-61
2022/03/03 03:48:29;;;;;;;;;;;17.60;99.90;;;;;;5047464;28;19929;-63
2022/03/03 03:50:56;;;;;;;;;;;17.60;99.90;;;;;;5044369;28;19933;-62
2022/03/03 03:53:23;;;;;;;;;;;17.60;99.90;;;;;;5046899;28;19940;-63
2022/03/03 03:55:50;;;;;;;;;;;17.60;99.90;;;;;;5044678;28;19929;-61
2022/03/03 03:58:18;;;;;;;;;;;17.70;99.90;;;;;;5045351;28;19925;-62
2022/03/03 04:00:45;;;;;;;;;;;17.70;99.90;;;;;;5041780;28;19940;-62
2022/03/03 04:03:12;;;;;;;;;;;17.70;99.90;;;;;;5029698;28;20397;-62
2022/03/03 04:05:39;;;;;;;;;;;17.60;99.90;;;;;;5039749;28;19969;-61
2022/03/03 04:08:07;;;;;;;;;;;17.60;99.90;;;;;;5044775;28;20365;-61
2022/03/03 04:10:34;;;;;;;;;;;17.60;99.90;;;;;;5041314;28;19936;-62
2022/03/03 04:13:01;;;;;;;;;;;17.60;99.90;;;;;;5037953;28;19932;-62
2022/03/03 04:15:28;;;;;;;;;;;17.60;99.90;;;;;;5044661;28;19929;-63
2022/03/03 04:17:55;;;;;;;;;;;17.70;99.90;;;;;;5045351;28;20411;-60
2022/03/03 04:20:23;;;;;;;;;;;17.60;99.90;;;;;;5032066;28;19925;-63
2022/03/03 04:22:50;;;;;;;;;;;17.60;99.90;;;;;;5041557;28;19936;-63
2022/03/03 04:25:17;;;;;;;;;;;17.50;99.90;;;;;;5036467;28;19925;-62
2022/03/03 04:27:44;;;;;;;;;;;17.50;99.90;;;;;;5036873;28;20240;-62
2022/03/03 04:30:11;;;;;;;;;;;17.50;99.90;;;;;;5040279;28;19925;-62
2022/03/03 04:32:39;;;;;;;;;;;17.50;99.90;;;;;;5046157;28;19936;-61
2022/03/03 04:35:06;;;;;;;;;;;17.50;99.90;;;;;;5038996;28;19925;-61
2022/03/03 04:37:34;;;;;;;;;;;17.50;99.90;;;;;;5041128;28;19933;-63
2022/03/03 04:40:02;;;;;;;;;;;17.50;99.90;;;;;;5028832;28;19929;-60
2022/03/03 04:42:29;;;;;;;;;;;17.50;99.90;;;;;;5043018;28;19929;-62
2022/03/03 04:44:56;;;;;;;;;;;17.50;99.90;;;;;;5043055;28;19925;-61
2022/03/03 04:47:24;;;;;;;;;;;17.40;99.90;;;;;;5039040;28;19940;-61
2022/03/03 04:49:51;;;;;;;;;;;17.50;99.90;;;;;;5033754;28;19936;-64
2022/03/03 04:52:18;;;;;;;;;;;17.50;99.90;;;;;;5042515;28;19925;-64
2022/03/03 04:54:45;;;;;;;;;;;17.50;99.90;;;;;;5041394;28;19925;-61
2022/03/03 04:57:12;;;;;;;;;;;17.60;99.90;;;;;;5043285;28;20099;-61
2022/03/03 04:59:40;;;;;;;;;;;17.60;99.90;;;;;;5040358;28;20320;-59
2022/03/03 05:02:07;;;;;;;;;;;17.80;99.90;;;;;;5047574;28;19928;-61
2022/03/03 05:04:34;;;;;;;;;;;17.90;99.90;;;;;;5040444;28;20136;-61
2022/03/03 05:07:01;;;;;;;;;;;18.00;99.90;;;;;;5035379;28;20204;-63
2022/03/03 05:09:28;;;;;;;;;;;18.10;99.90;;;;;;5037064;28;20270;-62
2022/03/03 05:11:57;;;;;;;;;;;18.20;99.90;;;;;;5050659;28;19929;-61
2022/03/03 05:14:25;;;;;;;;;;;18.30;99.90;;;;;;5046546;28;20403;-62
2022/03/03 05:16:52;;;;;;;;;;;18.50;99.90;;;;;;5040734;28;19955;-61
2022/03/03 05:19:19;;;;;;;;;;;18.50;99.90;;;;;;5049199;28;19935;-63
2022/03/03 05:21:46;;;;;;;;;;;18.70;99.90;;;;;;5048675;28;20428;-62
2022/03/03 05:24:13;;;;;;;;;;;18.80;99.90;;;;;;5048179;28;20315;-62
2022/03/03 05:26:40;;;;;;;;;;;18.90;99.90;;;;;;5050727;28;20295;-62
2022/03/03 05:29:07;;;;;;;;;;;19.00;99.90;;;;;;5057991;28;20423;-62
2022/03/03 05:31:35;;;;;;;;;;;19.10;99.90;;;;;;5058539;28;19940;-61
2022/03/03 05:34:03;;;;;;;;;;;19.20;99.90;;;;;;5048665;28;20393;-63
2022/03/03 05:36:30;;;;;;;;;;;19.30;99.90;;;;;;5046471;28;20316;-62
2022/03/03 05:38:58;;;;;;;;;;;19.40;99.90;;;;;;5046359;28;19935;-64
2022/03/03 05:41:25;;;;;;;;;;;19.50;99.90;;;;;;5051118;28;19939;-62
2022/03/03 05:43:52;;;;;;;;;;;19.60;99.90;;;;;;5052129;28;19936;-64
2022/03/03 05:46:19;;;;;;;;;;;19.80;99.90;;;;;;5046183;28;20051;-61
2022/03/03 05:48:48;;;;;;;;;;;19.90;99.90;;;;;;5058256;28;19935;-62
2022/03/03 05:51:15;;;;;;;;;;;20.00;99.90;;;;;;5047908;28;19929;-62
2022/03/03 05:53:42;;;;;;;;;;;20.20;99.90;;;;;;5054446;28;19936;-65
2022/03/03 05:56:10;;;;;;;;;;;20.30;99.90;;;;;;5056546;28;19928;-61
2022/03/03 05:58:42;;;;;;;;;;;20.40;99.90;;;;;;5046360;28;19935;-62
2022/03/03 06:01:10;;;;;;;;;;;20.40;99.90;;;;;;5058505;28;19928;-62
2022/03/03 06:03:38;;;;;;;;;;;20.50;99.90;;;;;;5038816;28;20005;-64
2022/03/03 06:06:16;;;;;;;;;;;20.50;99.90;;;;;;5050207;28;19932;-63
2022/03/03 06:09:07;;;;;;;;;;;20.50;99.90;;;;;;5055216;28;19929;-64
2022/03/03 06:11:35;;;;;;;;;;;20.50;99.90;;;;;;5038401;28;19933;-64
2022/03/03 06:14:07;;;;;;;;;;;20.50;99.90;;;;;;5050315;28;19932;-65
2022/03/03 06:16:35;;;;;;;;;;;20.50;99.90;;;;;;5049226;28;19943;-63
2022/03/03 06:19:03;;;;;;;;;;;20.50;99.90;;;;;;5044913;28;20420;-60
2022/03/03 06:21:30;;;;;;;;;;;20.50;99.90;;;;;;5043055;28;19929;-62
2022/03/03 06:23:57;;;;;;;;;;;20.50;99.90;;;;;;5043692;28;19928;-62
2022/03/03 06:26:25;;;;;;;;;;;20.60;99.90;;;;;;5047313;28;19933;-58
2022/03/03 06:28:53;;;;;;;;;;;20.70;99.90;;;;;;5041699;28;19929;-62
2022/03/03 06:31:20;;;;;;;;;;;20.60;99.90;;;;;;5044699;28;19936;-61
2022/03/03 06:33:48;;;;;;;;;;;20.70;99.90;;;;;;5044045;28;19933;-60
2022/03/03 06:36:15;;;;;;;;;;;20.60;99.90;;;;;;5042632;28;19944;-64
2022/03/03 06:38:42;;;;;;;;;;;20.60;99.90;;;;;;5042547;28;19929;-57
2022/03/03 06:41:09;;;;;;;;;;;20.60;99.90;;;;;;5040751;28;19937;-61
2022/03/03 06:43:37;;;;;;;;;;;20.50;99.70;;;;;;5044589;28;19932;-60
2022/03/03 06:46:05;;;;;;;;;;;19.40;95.40;;;;;;5035235;28;19940;-63
2022/03/03 06:48:32;;;;;;;;;;;19.30;96.30;;;;;;5042739;28;19929;-64
2022/03/03 06:51:02;;;;;;;;;;;19.50;95.80;;;;;;5046937;28;19935;-65
2022/03/03 06:53:31;;;;;;;;;;;19.80;94.90;;;;;;5042545;28;19944;-65
2022/03/03 06:56:10;;;;;;;;;;;20.00;95.00;;;;;;5044031;28;19929;-67
2022/03/03 06:58:37;;;;;;;;;;;20.20;95.20;;;;;;5040650;28;20593;-66
2022/03/03 07:01:07;;;;;;;;;;;20.20;95.60;;;;;;5045271;28;20402;-66
2022/03/03 07:03:35;;;;;;;;;;;20.20;96.20;;;;;;5054825;28;19963;-62
2022/03/03 07:06:03;;;;;;;;;;;20.20;96.70;;;;;;5053738;28;20693;-64
2022/03/03 07:08:31;;;;;;;;;;;20.10;97.00;;;;;;5054655;28;19928;-62
2022/03/03 07:10:58;;;;;;;;;;;20.00;97.30;;;;;;5059452;28;19928;-60
2022/03/03 07:13:25;;;;;;;;;;;20.00;97.60;;;;;;5046240;28;19951;-62
2022/03/03 07:15:54;;;;;;;;;;;20.10;97.80;;;;;;5049065;28;19930;-59
2022/03/03 07:18:27;;;;;;;;;;;20.10;98.00;;;;;;5053548;28;20388;-65
2022/03/03 07:21:00;;;;;;;;;;;20.10;98.50;;;;;;5051447;28;19955;-67
2022/03/03 07:23:36;;;;;;;;;;;20.20;98.50;;;;;;5046343;28;19933;-65
2022/03/03 07:26:08;;;;;;;;;;;20.30;98.70;;;;;;5050868;28;19925;-63
2022/03/03 07:28:38;;;;;;;;;;;20.40;98.90;;;;;;5048742;28;20400;-64
2022/03/03 07:31:06;;;;;;;;;;;20.60;98.80;;;;;;5049266;28;20323;-64
2022/03/03 07:33:46;;;;;;;;;;;20.70;98.90;;;;;;5049143;28;19945;-65
2022/03/03 07:36:18;;;;;;;;;;;20.80;98.80;;;;;;5051277;28;19928;-63
2022/03/03 07:38:54;;;;;;;;;;;20.90;98.80;;;;;;5041588;28;20439;-64
2022/03/03 07:41:22;;;;;;;;;;;21.00;98.90;;;;;;5047741;28;20273;-63
2022/03/03 07:43:49;;;;;;;;;;;21.00;98.80;;;;;;5054415;28;19929;-65
2022/03/03 07:46:17;;;;;;;;;;;21.00;98.90;;;;;;5064557;28;19929;-65
2022/03/03 07:48:45;;;;;;;;;;;21.00;99.00;;;;;;5054715;28;19960;-63
2022/03/03 07:51:12;;;;;;;;;;;21.00;99.10;;;;;;5046065;28;19925;-64
2022/03/03 07:53:40;;;;;;;;;;;20.90;99.10;;;;;;5040819;28;19948;-65
2022/03/03 07:56:08;;;;;;;;;;;20.90;99.30;;;;;;5048326;28;20414;-65
2022/03/03 07:58:41;;;;;;;;;;;20.80;99.40;;;;;;5050491;28;19928;-64
2022/03/03 08:01:08;;;;;;;;;;;20.80;99.50;;;;;;5050276;28;19936;-65
2022/03/03 08:03:37;;;;;;;;;;;20.80;99.60;;;;;;5049522;28;19925;-63
2022/03/03 08:06:04;;;;;;;;;;;20.70;99.70;;;;;;5042503;28;19929;-66
2022/03/03 08:08:32;;;;;;;;;;;20.70;99.80;;;;;;5044128;28;19948;-64
2022/03/03 08:11:03;;;;;;;;;;;20.60;99.90;;;;;;5043253;28;19928;-65
2022/03/03 08:13:31;;;;;;;;;;;20.70;99.90;;;;;;5033662;28;19929;-59
2022/03/03 08:15:58;;;;;;;;;;;20.60;99.90;;;;;;5050929;28;19929;-60
2022/03/03 08:18:35;;;;;;;;;;;20.60;99.90;;;;;;5081475;28;19928;-57
2022/03/03 08:21:06;;;;;;;;;;;20.50;99.90;;;;;;5047738;28;19932;-61
2022/03/03 08:23:34;;;;;;;;;;;20.50;99.90;;;;;;5044452;28;20300;-58
2022/03/03 08:26:03;;;;;;;;;;;19.90;91.50;;;;;;5050450;28;19935;-60
2022/03/03 08:28:31;;;;;;;;;;;18.30;91.10;;;;;;5046462;28;19929;-58
2022/03/03 08:31:00;;;;;;;;;;;18.30;92.80;;;;;;5050089;28;20333;-58
2022/03/03 08:33:46;;;;;;;;;;;18.70;93.00;;;;;;5082459;28;19928;-57
2022/03/03 08:36:46;;;;;;;;;;;19.20;92.80;;;;;;5070278;28;19952;-58
2022/03/03 08:39:15;;;;;;;;;;;19.70;93.00;;;;;;5036001;28;20022;-61
2022/03/03 08:41:43;;;;;;;;;;;19.90;93.30;;;;;;5045431;28;20024;-59
2022/03/03 08:44:11;;;;;;;;;;;20.20;93.60;;;;;;5048551;28;19935;-58
2022/03/03 08:46:40;;;;;;;;;;;20.40;94.00;;;;;;5049513;28;19944;-59
2022/03/03 08:49:09;;;;;;;;;;;20.50;94.10;;;;;;5049694;28;19955;-58
2022/03/03 08:51:37;;;;;;;;;;;20.60;94.30;;;;;;5050571;28;19944;-60
2022/03/03 08:54:05;;;;;;;;;;;20.70;94.40;;;;;;5045021;28;20588;-59
2022/03/03 08:56:32;;;;;;;;;;;20.80;94.50;;;;;;5046736;28;19935;-59
2022/03/03 08:59:00;;;;;;;;;;;20.90;94.70;;;;;;5045025;28;19940;-57
2022/03/03 09:01:28;;;;;;;;;;;21.00;94.90;;;;;;5046681;28;19992;-58
2022/03/03 09:03:56;;;;;;;;;;;21.00;95.00;;;;;;5051844;28;20394;-58
2022/03/03 09:06:24;;;;;;;;;;;21.10;95.10;;;;;;5046225;28;19929;-60
2022/03/03 09:08:52;;;;;;;;;;;21.10;95.20;;;;;;5050477;28;19925;-58
2022/03/03 09:11:20;;;;;;;;;;;21.10;95.40;;;;;;5051012;28;20288;-60
2022/03/03 09:13:47;;;;;;;;;;;21.10;95.50;;;;;;5073305;28;20040;-58
2022/03/03 09:16:17;;;;;;;;;;;21.10;95.70;;;;;;5045085;28;19940;-59
2022/03/03 09:18:45;;;;;;;;;;;21.20;95.80;;;;;;5052476;28;19935;-57
2022/03/03 09:21:13;;;;;;;;;;;21.20;95.90;;;;;;5043247;28;19929;-55
2022/03/03 09:23:40;;;;;;;;;;;21.10;96.00;;;;;;5046089;28;19929;-59
2022/03/03 09:26:07;;;;;;;;;;;21.10;96.20;;;;;;5042457;28;19929;-58
2022/03/03 09:28:35;;;;;;;;;;;21.10;96.40;;;;;;5044963;28;20265;-60
2022/03/03 09:31:02;;;;;;;;;;;21.00;96.50;;;;;;5043982;28;19929;-60
2022/03/03 09:33:30;;;;;;;;;;;21.00;96.70;;;;;;5043817;28;19929;-56
2022/03/03 09:35:57;;;;;;;;;;;20.90;96.80;;;;;;5048594;28;19933;-61
2022/03/03 09:38:24;;;;;;;;;;;20.90;96.90;;;;;;5047727;28;19940;-58
2022/03/03 09:40:52;;;;;;;;;;;21.00;97.30;;;;;;5045824;28;20009;-59
2022/03/03 09:43:19;;;;;;;;;;;20.90;97.20;;;;;;5042282;28;20692;-60
2022/03/03 09:45:46;;;;;;;;;;;20.90;97.30;;;;;;5045155;28;20565;-60
2022/03/03 09:48:17;;;;;;;;;;;20.80;97.50;;;;;;5052864;28;20422;-59
2022/03/03 09:50:44;;;;;;;;;;;20.70;96.40;;;;;;5047541;28;19929;-59
2022/03/03 09:53:13;;;;;;;;;;;20.60;96.30;;;;;;5045715;28;19949;-60
2022/03/03 09:55:41;;;;;;;;;;;20.60;95.80;;;;;;5049175;28;19936;-57
2022/03/03 09:58:08;;;;;;;;;;;20.60;96.20;;;;;;5048798;28;20295;-59
2022/03/03 10:00:39;;;;;;;;;;;20.60;96.20;;;;;;5040844;28;19925;-58
2022/03/03 10:03:10;;;;;;;;;;;20.50;96.30;;;;;;5040001;28;20427;-61
2022/03/03 10:05:39;;;;;;;;;;;20.50;96.50;;;;;;5039538;28;19940;-60
2022/03/03 10:08:09;;;;;;;;;;;20.50;96.70;;;;;;5056619;28;19939;-60
2022/03/03 10:10:40;;;;;;;;;;;20.40;96.90;;;;;;5059379;28;20008;-60
2022/03/03 10:13:08;;;;;;;;;;;20.40;97.10;;;;;;5055260;28;19940;-61
2022/03/03 10:15:36;;;;;;;;;;;20.40;97.20;;;;;;5047230;28;19933;-61
2022/03/03 10:18:05;;;;;;;;;;;20.40;97.30;;;;;;5046566;28;19939;-61
2022/03/03 10:20:38;;;;;;;;;;;20.40;97.40;;;;;;5050761;28;19925;-59
2022/03/03 10:23:06;;;;;;;;;;;20.50;97.40;;;;;;5047173;28;19929;-59
2022/03/03 10:25:35;;;;;;;;;;;20.60;97.50;;;;;;5037538;28;19929;-61
2022/03/03 10:28:10;;;;;;;;;;;20.70;97.40;;;;;;5058217;28;19925;-60
2022/03/03 10:30:57;;;;;;;;;;;20.80;97.40;;;;;;5048728;28;19947;-59
2022/03/03 10:33:26;;;;;;;;;;;20.90;97.30;;;;;;5049683;28;19928;-58
2022/03/03 10:36:05;;;;;;;;;;;21.00;97.30;;;;;;5050224;28;19928;-60
2022/03/03 10:38:34;;;;;;;;;;;21.10;97.10;;;;;;5040322;28;19929;-60
2022/03/03 10:41:01;;;;;;;;;;;21.20;97.10;;;;;;5045493;28;20024;-61
2022/03/03 10:43:45;;;;;;;;;;;21.20;96.20;;;;;;5041916;28;19938;-57
2022/03/03 10:46:13;;;;;;;;;;;20.30;87.00;;;;;;5042996;28;19929;-57
2022/03/03 10:48:40;;;;;;;;;;;19.40;85.00;;;;;;5047456;28;19932;-59
2022/03/03 10:51:08;;;;;;;;;;;18.80;82.40;;;;;;5044944;28;19940;-60
2022/03/03 10:53:35;;;;;;;;;;;18.40;82.00;;;;;;5041408;28;20363;-57
2022/03/03 10:56:06;;;;;;;;;;;18.10;77.60;;;;;;5047206;28;19947;-60
2022/03/03 10:58:43;;;;;;;;;;;17.80;79.80;;;;;;5041747;28;19929;-57
2022/03/03 11:01:10;;;;;;;;;;;17.70;80.50;;;;;;5043297;28;20335;-61
2022/03/03 11:03:39;;;;;;;;;;;17.90;80.20;;;;;;5042106;28;19945;-59
2022/03/03 11:06:07;;;;;;;;;;;17.90;81.90;;;;;;5041748;28;19936;-58
2022/03/03 11:08:34;;;;;;;;;;;18.00;80.60;;;;;;5045760;28;19928;-60
2022/03/03 11:11:03;;;;;;;;;;;18.20;80.00;;;;;;5047836;28;19940;-59
2022/03/03 11:13:30;;;;;;;;;;;18.30;79.10;;;;;;5041329;28;19944;-59
2022/03/03 11:15:57;;;;;;;;;;;18.40;80.50;;;;;;5045522;28;20042;-58
2022/03/03 11:18:25;;;;;;;;;;;19.00;82.60;;;;;;5042774;28;19928;-60
2022/03/03 11:20:52;;;;;;;;;;;19.70;82.30;;;;;;5045371;28;19929;-58
2022/03/03 11:23:21;;;;;;;;;;;20.10;82.90;;;;;;5044590;28;20332;-61
2022/03/03 11:25:50;;;;;;;;;;;20.40;83.80;;;;;;5045448;28;19956;-59
2022/03/03 11:28:18;;;;;;;;;;;20.60;84.80;;;;;;5043223;28;19933;-61
2022/03/03 11:30:46;;;;;;;;;;;20.70;85.40;;;;;;5049912;28;19951;-59
2022/03/03 11:33:17;;;;;;;;;;;20.80;86.40;;;;;;5043616;28;20370;-63
2022/03/03 11:35:48;;;;;;;;;;;21.00;88.20;;;;;;5044653;28;19940;-62
2022/03/03 11:38:16;;;;;;;;;;;21.10;89.40;;;;;;5045004;28;19936;-66
2022/03/03 11:41:00;;;;;;;;;;;21.30;90.10;;;;;;5042951;28;19964;-65
2022/03/03 11:43:30;;;;;;;;;;;21.30;90.40;;;;;;5041833;28;19936;-64
2022/03/03 11:45:58;;;;;;;;;;;21.30;90.80;;;;;;5045916;28;19929;-62
2022/03/03 11:48:36;;;;;;;;;;;21.40;91.00;;;;;;5048898;28;19935;-61
2022/03/03 11:51:22;;;;;;;;;;;21.40;91.20;;;;;;5049432;28;19933;-62
2022/03/03 11:54:10;;;;;;;;;;;21.40;91.50;;;;;;5043928;28;19936;-63
2022/03/03 11:56:56;;;;;;;;;;;21.20;92.00;;;;;;5049638;28;19928;-66
2022/03/03 11:59:32;;;;;;;;;;;21.10;92.30;;;;;;5045725;28;19932;-63
2022/03/03 12:02:00;;;;;;;;;;;21.10;92.70;;;;;;5044383;28;19940;-69
2022/03/03 12:04:27;;;;;;;;;;;21.00;93.00;;;;;;5050278;28;19935;-61
2022/03/03 12:06:54;;;;;;;;;;;21.00;93.40;;;;;;5047329;28;20315;-60
2022/03/03 12:09:22;;;;;;;;;;;21.00;93.70;;;;;;5049301;28;20453;-62
2022/03/03 12:12:05;;;;;;;;;;;21.00;94.00;;;;;;5051107;28;19929;-62
2022/03/03 12:14:33;;;;;;;;;;;21.00;94.50;;;;;;5048048;28;19939;-62
2022/03/03 12:17:19;;;;;;;;;;;20.90;95.00;;;;;;5049758;28;20309;-63
2022/03/03 12:19:46;;;;;;;;;;;20.90;95.50;;;;;;5039219;28;19936;-62
2022/03/03 12:22:24;;;;;;;;;;;20.90;96.00;;;;;;5054889;28;19935;-62
2022/03/03 12:24:52;;;;;;;;;;;20.90;96.30;;;;;;5045720;28;19948;-63
2022/03/03 12:27:19;;;;;;;;;;;20.90;96.80;;;;;;5058998;28;20717;-62
2022/03/03 12:29:56;;;;;;;;;;;20.90;97.00;;;;;;5055749;28;20308;-65
2022/03/03 12:32:44;;;;;;;;;;;20.90;97.40;;;;;;5051598;28;19924;-64
2022/03/03 12:35:29;;;;;;;;;;;20.80;97.80;;;;;;5043198;28;19932;-62
2022/03/03 12:37:57;;;;;;;;;;;20.80;98.20;;;;;;5046870;28;20335;-64
2022/03/03 12:40:28;;;;;;;;;;;20.70;98.70;;;;;;5040153;28;20398;-64
2022/03/03 12:42:56;;;;;;;;;;;20.70;98.70;;;;;;5054342;28;19929;-62
2022/03/03 12:45:23;;;;;;;;;;;20.70;98.90;;;;;;5046485;28;19935;-62
2022/03/03 12:47:52;;;;;;;;;;;20.70;99.10;;;;;;5054748;28;20316;-63
2022/03/03 12:50:25;;;;;;;;;;;20.70;99.40;;;;;;5053628;28;19932;-63
2022/03/03 12:52:55;;;;;;;;;;;20.70;99.90;;;;;;5046162;28;19936;-64
2022/03/03 12:55:31;;;;;;;;;;;20.70;99.90;;;;;;5033923;28;19929;-63
2022/03/03 12:57:58;;;;;;;;;;;20.60;99.90;;;;;;5047445;28;20017;-63
2022/03/03 13:00:26;;;;;;;;;;;20.60;99.90;;;;;;5049107;28;19929;-64
2022/03/03 13:02:54;;;;;;;;;;;20.60;99.90;;;;;;5049204;28;19937;-62
2022/03/03 13:05:29;;;;;;;;;;;20.70;99.90;;;;;;5044161;28;19935;-63
2022/03/03 13:07:57;;;;;;;;;;;20.80;99.90;;;;;;5037862;28;19925;-64
2022/03/03 13:10:24;;;;;;;;;;;20.80;99.90;;;;;;5034333;28;19929;-65
2022/03/03 13:12:55;;;;;;;;;;;20.90;99.90;;;;;;5049040;28;19924;-63
2022/03/03 13:15:26;;;;;;;;;;;21.10;99.90;;;;;;5040084;28;19929;-63
2022/03/03 13:17:57;;;;;;;;;;;21.20;99.90;;;;;;5042173;28;19929;-63
2022/03/03 13:20:29;;;;;;;;;;;21.30;99.90;;;;;;5037757;28;20643;-66
2022/03/03 13:22:56;;;;;;;;;;;21.30;99.90;;;;;;5047154;28;20514;-66
2022/03/03 13:25:26;;;;;;;;;;;21.40;99.90;;;;;;5048591;28;19944;-68
2022/03/03 13:27:53;;;;;;;;;;;21.40;99.90;;;;;;5051455;28;19929;-61
2022/03/03 13:30:21;;;;;;;;;;;21.50;99.90;;;;;;5044344;28;19948;-62
2022/03/03 13:32:50;;;;;;;;;;;21.50;99.90;;;;;;5046627;28;19929;-61
2022/03/03 13:35:18;;;;;;;;;;;21.50;99.90;;;;;;5051733;28;19933;-62
2022/03/03 13:37:46;;;;;;;;;;;21.50;99.90;;;;;;5050559;28;19944;-62
2022/03/03 13:40:22;;;;;;;;;;;21.60;99.90;;;;;;5048610;28;19929;-62
2022/03/03 13:42:56;;;;;;;;;;;21.60;99.90;;;;;;5050109;28;19933;-61
2022/03/03 13:45:28;;;;;;;;;;;21.60;99.90;;;;;;5051901;28;19940;-59
2022/03/03 13:48:04;;;;;;;;;;;21.60;99.90;;;;;;5052268;28;19928;-61
2022/03/03 13:50:34;;;;;;;;;;;21.60;99.90;;;;;;5054718;28;19939;-62
2022/03/03 13:53:23;;;;;;;;;;;21.60;99.90;;;;;;5047468;28;20379;-62
2022/03/03 13:56:12;;;;;;;;;;;21.70;99.90;;;;;;5045246;28;19928;-62
2022/03/03 13:58:40;;;;;;;;;;;21.70;99.90;;;;;;5049570;28;19928;-64
2022/03/03 14:01:07;;;;;;;;;;;21.80;99.90;;;;;;5049389;28;20296;-61
2022/03/03 14:03:37;;;;;;;;;;;21.80;99.90;;;;;;5049595;28;19933;-62
2022/03/03 14:06:05;;;;;;;;;;;21.70;99.90;;;;;;5048940;28;20383;-60
2022/03/03 14:08:40;;;;;;;;;;;21.70;99.90;;;;;;5038249;28;19936;-63
2022/03/03 14:11:26;;;;;;;;;;;21.60;99.90;;;;;;5050608;28;20423;-59
2022/03/03 14:13:57;;;;;;;;;;;21.40;99.90;;;;;;5063259;28;20377;-59
2022/03/03 14:16:26;;;;;;;;;;;21.40;99.90;;;;;;5048023;28;19935;-60
2022/03/03 14:18:54;;;;;;;;;;;21.30;99.90;;;;;;5046865;28;19928;-59
2022/03/03 14:21:22;;;;;;;;;;;21.30;99.90;;;;;;5044643;28;20394;-60
2022/03/03 14:23:50;;;;;;;;;;;21.20;99.90;;;;;;5041554;28;19929;-59
2022/03/03 14:26:26;;;;;;;;;;;21.20;99.90;;;;;;5045589;28;19935;-60
2022/03/03 14:28:53;;;;;;;;;;;21.10;99.90;;;;;;5052740;28;19924;-59
2022/03/03 14:31:21;;;;;;;;;;;21.10;99.90;;;;;;5061648;28;19931;-60